Atlantic Coast — WDD9171 — position and weather

sailwx.info

Track history (hours):
 
Tides and Currents Weather Stations Pressure Air Temp Water Temp Dewpoint Dewpoint Depression Visibility Wind Speed Wind Dir Waves Ship Positions

Atlantic Coast

Owner: DANN MARINE TOWING, CHESAPEAKE CITY, MD. More information available from US FCC via Universal Licensing System and Coast Guard Vessel Documentation Center.

Last reported at 2018-Jul-22 03:02 UTC. Time now 2018-Jul-22 06:47 UTC.
Position N 39°22' W 075°28'.

Length 30 m; draft 4.2 m.

Type: Tug. MMSI: 367307850.

Date/timePositionNaut miles runAvg speedWind from/ knotsBaromVisibWave heightAir tempDewpointWater temp
2018-Jul-22 03:02N 39°22' W 075°28'1 7.6
2018-Jul-22 02:58N 39°23' W 075°28'3 7.4
2018-Jul-22 02:30N 39°25' W 075°31'3 6.8
2018-Jul-22 02:00N 39°28' W 075°34'3 6.7
2018-Jul-22 01:30N 39°31' W 075°33'3 6.2
2018-Jul-22 01:00N 39°34' W 075°33'3 5.6
2018-Jul-22 00:30N 39°37' W 075°35'2 4.6
2018-Jul-22 00:00N 39°39' W 075°33'2 4.4
2018-Jul-21 23:30N 39°41' W 075°31'2 3.5
2018-Jul-21 23:00N 39°42' W 075°31'2 3.8
2018-Jul-21 22:27N 39°44' W 075°30'2 3.6
2018-Jul-21 22:00N 39°46' W 075°29'2 3.7
2018-Jul-21 21:30N 39°47' W 075°27'2 3.8
2018-Jul-21 21:00N 39°48' W 075°25'2 4.0
2018-Jul-21 20:30N 39°49' W 075°23'2 3.5
2018-Jul-21 20:00N 39°50' W 075°21'1 1.9
2018-Jul-21 19:30N 39°51' W 075°20'0 0.4
2018-Jul-21 19:01N 39°51' W 075°20'0 0.1
2018-Jul-21 18:30N 39°51' W 075°20'0 0.2
2018-Jul-21 18:01N 39°51' W 075°20'0 0.1
2018-Jul-21 17:30N 39°51' W 075°20'0 0.0
2018-Jul-21 17:01N 39°51' W 075°20'0 0.1
2018-Jul-21 16:30N 39°51' W 075°20'0 0.1
2018-Jul-21 16:00N 39°51' W 075°20'0 0.1
2018-Jul-21 15:30N 39°51' W 075°20'0 0.0
2018-Jul-21 15:00N 39°51' W 075°20'0 0.1
2018-Jul-21 14:30N 39°51' W 075°20'1 0.6
2018-Jul-21 13:30N 39°51' W 075°21'2 4.7
2018-Jul-21 13:00N 39°49' W 075°23'2 4.3
2018-Jul-21 12:30N 39°48' W 075°25'2 3.2
2018-Jul-21 12:00N 39°47' W 075°27'5 9.0
2018-Jul-21 11:30N 39°43' W 075°30'4 9.1
2018-Jul-21 11:00N 39°39' W 075°33'4 8.0
2018-Jul-21 10:30N 39°35' W 075°34'5 8.9
2018-Jul-21 09:59N 39°31' W 075°33'4 9.3
2018-Jul-21 09:30N 39°26' W 075°33'5 9.8
2018-Jul-21 09:00N 39°23' W 075°28'1 0.1
2018-Jul-21 00:25N 39°24' W 075°29'3 6.8
2018-Jul-21 00:00N 39°26' W 075°32'3 6.2
2018-Jul-20 23:30N 39°28' W 075°34'3 5.5
2018-Jul-20 22:59N 39°31' W 075°33'2 4.7
2018-Jul-20 22:30N 39°33' W 075°33'3 5.1
2018-Jul-20 22:00N 39°36' W 075°34'2 4.2
2018-Jul-20 21:30N 39°38' W 075°35'2 4.5
2018-Jul-20 21:00N 39°39' W 075°33'2 4.4
2018-Jul-20 20:28N 39°42' W 075°31'2 4.6
2018-Jul-20 19:59N 39°44' W 075°30'3 5.4
2018-Jul-20 19:29N 39°46' W 075°29'3 6.2
2018-Jul-20 18:59N 39°48' W 075°26'3 5.9
2018-Jul-20 18:30N 39°50' W 075°23'2 4.1
2018-Jul-20 18:01N 39°51' W 075°20'0 0.1
2018-Jul-20 17:31N 39°51' W 075°20'0 0.3
2018-Jul-20 17:00N 39°51' W 075°20'0 0.1
2018-Jul-20 16:31N 39°51' W 075°20'0 0.0
2018-Jul-20 16:00N 39°51' W 075°20'0 0.0
2018-Jul-20 15:30N 39°51' W 075°20'0 0.0
2018-Jul-20 15:01N 39°51' W 075°20'0 0.0
2018-Jul-20 14:31N 39°51' W 075°20'0 0.0
2018-Jul-20 14:00N 39°51' W 075°20'0 0.0
2018-Jul-20 13:30N 39°51' W 075°20'0 0.0
2018-Jul-20 13:00N 39°51' W 075°20'0 0.0
2018-Jul-20 12:31N 39°51' W 075°20'0 0.0
2018-Jul-20 12:00N 39°51' W 075°20'0 0.0
2018-Jul-20 11:30N 39°51' W 075°20'0 0.0
2018-Jul-20 11:00N 39°51' W 075°20'0 0.0
2018-Jul-20 10:30N 39°51' W 075°20'0 0.0
2018-Jul-20 10:01N 39°51' W 075°20'0 0.0
2018-Jul-20 09:31N 39°51' W 075°20'0 0.0
2018-Jul-20 09:00N 39°51' W 075°20'0 0.0
2018-Jul-20 08:30N 39°51' W 075°20'0 0.0
2018-Jul-20 08:01N 39°51' W 075°20'0 0.0
2018-Jul-20 07:31N 39°51' W 075°20'0 0.0
2018-Jul-20 07:01N 39°51' W 075°20'0 0.0
2018-Jul-20 06:30N 39°51' W 075°20'0 0.0
2018-Jul-20 06:01N 39°51' W 075°20'0 0.0
2018-Jul-20 05:30N 39°51' W 075°20'0 0.0
2018-Jul-20 05:00N 39°51' W 075°20'0 0.0
2018-Jul-20 04:31N 39°51' W 075°20'0 0.0
2018-Jul-20 04:00N 39°51' W 075°20'0 0.0
2018-Jul-20 03:30N 39°51' W 075°20'0 0.0
2018-Jul-20 03:00N 39°51' W 075°20'0 0.1
2018-Jul-20 02:31N 39°51' W 075°20'2 3.3
2018-Jul-20 02:00N 39°50' W 075°22'3 6.7
2018-Jul-20 01:31N 39°48' W 075°26'3 5.1
2018-Jul-20 01:00N 39°46' W 075°28'4 8.2
2018-Jul-20 00:30N 39°43' W 075°31'4 8.3
2018-Jul-20 00:00N 39°39' W 075°33'4 7.5
2018-Jul-19 23:30N 39°35' W 075°34'4 8.7
2018-Jul-19 23:00N 39°31' W 075°33'5 9.2
2018-Jul-19 22:30N 39°26' W 075°32'510.1
2018-Jul-19 22:00N 39°23' W 075°28'510.5
2018-Jul-19 21:30N 39°19' W 075°23'510.4
2018-Jul-19 21:00N 39°15' W 075°19'510.2
2018-Jul-19 20:30N 39°10' W 075°16'6 9.8
2018-Jul-19 19:53N 39°05' W 075°11'4 9.9
2018-Jul-19 19:30N 39°02' W 075°10'5 9.3
2018-Jul-19 19:00N 38°57' W 075°09'2 3.3
2018-Jul-19 18:19N 38°56' W 075°06'2 5.5
2018-Jul-19 17:57N 38°58' W 075°07'8 5.3
2018-Jul-19 16:25N 39°05' W 075°12'2 5.8
2018-Jul-19 16:00N 39°07' W 075°13'3 6.0
2018-Jul-19 15:30N 39°10' W 075°15'3 6.8
2018-Jul-19 15:00N 39°13' W 075°17'8 8.3
2018-Jul-19 14:00N 39°19' W 075°24'4 8.7
2018-Jul-19 13:30N 39°22' W 075°28'4 8.0
2018-Jul-19 13:00N 39°25' W 075°31'4 8.0
2018-Jul-19 12:30N 39°29' W 075°34'4 8.1
2018-Jul-19 12:00N 39°33' W 075°33'4 7.3
2018-Jul-19 11:31N 39°36' W 075°34'3 6.2
2018-Jul-19 11:00N 39°39' W 075°33'3 6.0
2018-Jul-19 10:30N 39°42' W 075°31'3 5.5
2018-Jul-19 10:00N 39°45' W 075°30'3 5.0
2018-Jul-19 09:30N 39°47' W 075°28'2 4.7
2018-Jul-19 09:00N 39°48' W 075°26'2 3.3
2018-Jul-19 08:30N 39°49' W 075°24'2 3.1
2018-Jul-19 08:00N 39°50' W 075°22'2 3.3
2018-Jul-19 07:30N 39°51' W 075°20'0 0.1
2018-Jul-19 07:00N 39°51' W 075°20'0 0.0
2018-Jul-19 06:30N 39°51' W 075°20'0 0.1
2018-Jul-19 06:00N 39°51' W 075°20'0 0.0
2018-Jul-19 05:30N 39°51' W 075°20'0 0.0
2018-Jul-19 05:00N 39°51' W 075°20'0 0.0
2018-Jul-19 04:30N 39°51' W 075°20'0 0.0
2018-Jul-19 04:00N 39°51' W 075°20'0 0.0
2018-Jul-19 03:30N 39°51' W 075°20'0 0.0
2018-Jul-19 03:00N 39°51' W 075°20'0 0.0
2018-Jul-19 02:30N 39°51' W 075°20'0 0.0
2018-Jul-19 02:00N 39°51' W 075°20'0 0.0
2018-Jul-19 01:30N 39°51' W 075°20'0 0.0
2018-Jul-19 01:00N 39°51' W 075°20'0 0.0
2018-Jul-19 00:30N 39°51' W 075°20'0 0.0
2018-Jul-19 00:00N 39°51' W 075°20'0 0.0
2018-Jul-18 23:30N 39°51' W 075°20'0 0.0
2018-Jul-18 23:00N 39°51' W 075°20'0 0.0
2018-Jul-18 22:30N 39°51' W 075°20'0 0.0
2018-Jul-18 22:00N 39°51' W 075°20'0 0.0
2018-Jul-18 21:30N 39°51' W 075°20'0 0.0
2018-Jul-18 21:00N 39°51' W 075°20'0 0.0
2018-Jul-18 20:30N 39°51' W 075°20'0 0.0
2018-Jul-18 20:00N 39°51' W 075°20'0 0.0
2018-Jul-18 19:30N 39°51' W 075°20'0 0.0
2018-Jul-18 19:00N 39°51' W 075°20'0 0.0
2018-Jul-18 18:30N 39°51' W 075°20'0 0.0
2018-Jul-18 18:00N 39°51' W 075°20'0 0.0
2018-Jul-18 17:30N 39°51' W 075°20'0 0.0
2018-Jul-18 17:00N 39°51' W 075°20'0 0.1
2018-Jul-18 16:30N 39°51' W 075°20'1 2.9
2018-Jul-18 16:00N 39°50' W 075°22'3 6.7
2018-Jul-18 15:30N 39°48' W 075°25'2 3.9
2018-Jul-18 15:00N 39°47' W 075°28'4 7.2
2018-Jul-18 14:30N 39°44' W 075°30'4 7.4
2018-Jul-18 14:00N 39°40' W 075°32'3 6.9
2018-Jul-18 13:30N 39°38' W 075°35'3 6.6
2018-Jul-18 13:00N 39°35' W 075°33'3 6.3
2018-Jul-18 12:30N 39°31' W 075°33'3 6.4
2018-Jul-18 12:00N 39°28' W 075°33'3 6.9
2018-Jul-18 11:30N 39°25' W 075°31'7 7.5
2018-Jul-18 10:30N 39°20' W 075°25'4 7.6
2018-Jul-18 10:00N 39°17' W 075°21'4 8.0
2018-Jul-18 09:30N 39°14' W 075°18'4 7.9
2018-Jul-18 09:00N 39°10' W 075°16'4 8.2
2018-Jul-18 08:30N 39°07' W 075°13'4 8.3
2018-Jul-18 08:00N 39°03' W 075°10'4 8.3
2018-Jul-18 07:29N 38°59' W 075°09'3 5.0
2018-Jul-18 06:58N 38°57' W 075°08'2 3.6
2018-Jul-18 06:29N 38°55' W 075°07'3 5.3
2018-Jul-18 06:00N 38°58' W 075°07'3 5.9
2018-Jul-18 05:30N 39°01' W 075°09'3 5.6
2018-Jul-18 05:00N 39°03' W 075°10'3 5.2
2018-Jul-18 04:30N 39°06' W 075°11'2 4.7
2018-Jul-18 04:00N 39°08' W 075°13'3 5.4
2018-Jul-18 03:30N 39°10' W 075°15'3 5.1
2018-Jul-18 03:00N 39°12' W 075°17'3 6.3
2018-Jul-18 02:30N 39°15' W 075°19'3 6.8
2018-Jul-18 02:00N 39°17' W 075°22'4 8.1
2018-Jul-18 01:30N 39°20' W 075°25'4 8.3
2018-Jul-18 01:00N 39°23' W 075°29'4 8.4
2018-Jul-18 00:30N 39°27' W 075°33'4 7.9
2018-Jul-18 00:00N 39°30' W 075°33'4 7.8
2018-Jul-17 23:30N 39°34' W 075°33'4 7.2
2018-Jul-17 23:00N 39°38' W 075°35'3 6.7
2018-Jul-17 22:30N 39°40' W 075°32'3 6.3
2018-Jul-17 22:01N 39°43' W 075°30'3 5.4
2018-Jul-17 21:30N 39°46' W 075°29'2 4.9
2018-Jul-17 21:00N 39°48' W 075°27'2 4.6
2018-Jul-17 20:30N 39°49' W 075°24'1 3.0
2018-Jul-17 20:00N 39°50' W 075°23'1 3.0
2018-Jul-17 19:30N 39°51' W 075°21'1 1.1
2018-Jul-17 19:00N 39°51' W 075°20'0 0.0
2018-Jul-17 18:30N 39°51' W 075°20'0 0.1
2018-Jul-17 18:00N 39°51' W 075°20'0 0.0
2018-Jul-17 17:30N 39°51' W 075°21'0 0.0
2018-Jul-17 17:00N 39°51' W 075°21'0 0.1
2018-Jul-17 16:30N 39°51' W 075°20'0 0.4
2018-Jul-17 16:00N 39°51' W 075°20'0 0.2
2018-Jul-17 15:30N 39°51' W 075°20'0 0.0
2018-Jul-17 15:00N 39°51' W 075°20'0 0.0
2018-Jul-17 14:30N 39°51' W 075°20'0 0.0
2018-Jul-17 14:00N 39°51' W 075°20'0 0.0
2018-Jul-17 13:30N 39°51' W 075°20'0 0.0
2018-Jul-17 12:59N 39°51' W 075°20'0 0.0
2018-Jul-17 12:30N 39°51' W 075°20'0 0.0
2018-Jul-17 12:00N 39°51' W 075°20'0 0.0
2018-Jul-17 11:30N 39°51' W 075°20'0 0.0
2018-Jul-17 11:00N 39°51' W 075°20'0 0.0
2018-Jul-17 10:30N 39°51' W 075°20'0 0.0
2018-Jul-17 10:00N 39°51' W 075°20'0 0.0
2018-Jul-17 09:30N 39°51' W 075°20'0 0.0
2018-Jul-17 09:00N 39°51' W 075°20'0 0.0
2018-Jul-17 08:30N 39°51' W 075°20'0 0.0
2018-Jul-17 08:00N 39°51' W 075°20'0 0.0
2018-Jul-17 07:30N 39°51' W 075°20'0 0.0
2018-Jul-17 07:00N 39°51' W 075°20'0 0.0
2018-Jul-17 06:30N 39°51' W 075°20'0 0.0
2018-Jul-17 06:00N 39°51' W 075°20'0 0.0
2018-Jul-17 05:30N 39°51' W 075°20'0 0.0
2018-Jul-17 05:00N 39°51' W 075°20'0 0.0
2018-Jul-17 04:30N 39°51' W 075°20'0 0.1
2018-Jul-17 04:00N 39°51' W 075°20'1 2.0
2018-Jul-17 03:30N 39°50' W 075°21'4 7.6
2018-Jul-17 03:00N 39°48' W 075°25'2 3.2
2018-Jul-17 02:30N 39°47' W 075°27'4 7.6
2018-Jul-17 02:00N 39°44' W 075°30'4 7.3
2018-Jul-17 01:30N 39°41' W 075°31'4 7.0
2018-Jul-17 01:00N 39°38' W 075°34'3 6.8
2018-Jul-17 00:30N 39°35' W 075°33'7 6.8
2018-Jul-16 23:30N 39°28' W 075°34'4 7.0
2018-Jul-16 23:00N 39°25' W 075°31'4 7.3
2018-Jul-16 22:30N 39°22' W 075°28'4 7.4
2018-Jul-16 22:00N 39°20' W 075°25'4 7.4
2018-Jul-16 21:30N 39°17' W 075°21'4 7.8
2018-Jul-16 21:00N 39°14' W 075°18'4 7.9
2018-Jul-16 20:30N 39°10' W 075°16'4 8.1
2018-Jul-16 20:00N 39°07' W 075°13'4 8.2
2018-Jul-16 19:30N 39°03' W 075°10'5 8.4
2018-Jul-16 18:58N 38°59' W 075°09'2 5.2
2018-Jul-16 18:30N 38°57' W 075°09'2 1.4
2018-Jul-16 17:23N 38°58' W 075°07'2 6.0
2018-Jul-16 16:59N 39°00' W 075°09'3 5.6
2018-Jul-16 16:30N 39°03' W 075°10'3 5.4
2018-Jul-16 16:00N 39°05' W 075°11'2 4.6
2018-Jul-16 15:30N 39°07' W 075°13'3 5.2
2018-Jul-16 15:00N 39°09' W 075°15'2 4.9
2018-Jul-16 14:30N 39°11' W 075°17'2 4.8
2018-Jul-16 14:00N 39°13' W 075°18'3 6.5
2018-Jul-16 13:30N 39°16' W 075°20'3 6.7
2018-Jul-16 13:00N 39°18' W 075°23'4 7.6
2018-Jul-16 12:30N 39°21' W 075°27'4 8.3
2018-Jul-16 12:01N 39°24' W 075°30'4 8.4
2018-Jul-16 11:30N 39°28' W 075°34'4 8.2
2018-Jul-16 11:00N 39°32' W 075°33'4 7.8
2018-Jul-16 10:31N 39°35' W 075°34'3 6.6
2018-Jul-16 10:01N 39°39' W 075°33'4 7.0
2018-Jul-16 09:30N 39°42' W 075°31'3 6.5
2018-Jul-16 09:00N 39°45' W 075°30'3 5.6
2018-Jul-16 08:30N 39°47' W 075°27'3 5.1
2018-Jul-16 08:00N 39°48' W 075°25'2 4.4
2018-Jul-16 07:30N 39°50' W 075°22'2 3.8
2018-Jul-16 07:00N 39°51' W 075°20'0 0.4
2018-Jul-16 06:30N 39°51' W 075°20'0 0.1
2018-Jul-16 06:00N 39°51' W 075°20'0 0.0
2018-Jul-16 05:30N 39°51' W 075°20'0 0.0
2018-Jul-16 05:00N 39°51' W 075°20'0 0.0
2018-Jul-16 04:30N 39°51' W 075°20'0 0.0
2018-Jul-16 04:00N 39°51' W 075°20'0 0.0
2018-Jul-16 03:30N 39°51' W 075°20'0 0.0
2018-Jul-16 03:00N 39°51' W 075°20'0 0.0
2018-Jul-16 02:30N 39°51' W 075°20'0 0.0
2018-Jul-16 02:00N 39°51' W 075°20'0 0.0
2018-Jul-16 01:31N 39°51' W 075°20'0 0.0
2018-Jul-16 01:00N 39°51' W 075°20'0 0.0
2018-Jul-16 00:30N 39°51' W 075°20'0 0.0
2018-Jul-16 00:00N 39°51' W 075°20'0 0.0
2018-Jul-15 23:30N 39°51' W 075°20'0 0.0
2018-Jul-15 23:00N 39°51' W 075°20'0 0.0
2018-Jul-15 22:30N 39°51' W 075°20'0 0.0
2018-Jul-15 22:00N 39°51' W 075°20'0 0.0
2018-Jul-15 21:30N 39°51' W 075°20'0 0.0
2018-Jul-15 21:00N 39°51' W 075°20'0 0.0
2018-Jul-15 20:30N 39°51' W 075°20'0 0.0
2018-Jul-15 20:00N 39°51' W 075°20'0 0.0
2018-Jul-15 19:30N 39°51' W 075°20'0 0.0
2018-Jul-15 19:01N 39°51' W 075°20'0 0.0
2018-Jul-15 18:30N 39°51' W 075°20'0 0.0
2018-Jul-15 18:00N 39°51' W 075°20'0 0.0
2018-Jul-15 17:30N 39°51' W 075°20'0 0.0
2018-Jul-15 17:00N 39°51' W 075°20'0 0.0
2018-Jul-15 16:30N 39°51' W 075°20'0 0.0
2018-Jul-15 16:00N 39°51' W 075°20'0 0.2
2018-Jul-15 15:30N 39°51' W 075°20'4 8.7
2018-Jul-15 15:00N 39°48' W 075°25'2 4.8
2018-Jul-15 14:30N 39°47' W 075°28'4 7.6
2018-Jul-15 14:00N 39°44' W 075°30'4 7.3
2018-Jul-15 13:30N 39°40' W 075°32'3 6.9
2018-Jul-15 13:00N 39°38' W 075°35'3 7.0
2018-Jul-15 12:30N 39°34' W 075°33'3 6.3
2018-Jul-15 12:01N 39°31' W 075°33'3 6.8
2018-Jul-15 11:31N 39°28' W 075°34'3 6.7
2018-Jul-15 11:00N 39°25' W 075°31'3 6.1
2018-Jul-15 10:30N 39°23' W 075°28'3 6.6
2018-Jul-15 10:00N 39°20' W 075°26'3 6.5
2018-Jul-15 09:31N 39°18' W 075°23'3 6.2
2018-Jul-15 09:01N 39°16' W 075°20'3 6.5
2018-Jul-15 08:30N 39°13' W 075°18'3 6.6
2018-Jul-15 08:00N 39°10' W 075°16'6 6.6
2018-Jul-15 07:08N 39°05' W 075°11'1 6.4
2018-Jul-15 07:00N 39°05' W 075°11'3 6.4
2018-Jul-15 06:30N 39°02' W 075°10'3 6.6
2018-Jul-15 06:00N 38°58' W 075°09'2 3.9
2018-Jul-15 05:30N 38°57' W 075°09'1 2.7
2018-Jul-15 05:00N 38°56' W 075°07'1 2.9
2018-Jul-15 04:31N 38°57' W 075°07'3 5.1
2018-Jul-15 04:00N 38°60' W 075°08'3 5.9
2018-Jul-15 03:30N 39°02' W 075°10'3 6.1
2018-Jul-15 03:00N 39°05' W 075°11'3 5.5
2018-Jul-15 02:31N 39°07' W 075°13'3 5.4
2018-Jul-15 02:00N 39°10' W 075°15'2 4.9
2018-Jul-15 01:30N 39°12' W 075°17'2 4.7
2018-Jul-15 01:00N 39°14' W 075°18'3 5.7
2018-Jul-15 00:30N 39°16' W 075°20'3 6.1
2018-Jul-15 00:00N 39°18' W 075°23'4 7.2
2018-Jul-14 23:30N 39°21' W 075°26'4 8.4
2018-Jul-14 23:00N 39°24' W 075°30'4 8.7
2018-Jul-14 22:30N 39°27' W 075°34'4 8.6
2018-Jul-14 22:00N 39°32' W 075°33'4 8.3
2018-Jul-14 21:30N 39°36' W 075°34'4 7.1
2018-Jul-14 21:00N 39°39' W 075°33'4 7.7
2018-Jul-14 20:30N 39°43' W 075°31'3 7.0
2018-Jul-14 20:00N 39°46' W 075°29'3 6.1
2018-Jul-14 19:30N 39°48' W 075°26'3 5.7
2018-Jul-14 19:00N 39°49' W 075°23'2 4.6
2018-Jul-14 18:30N 39°51' W 075°20'0 0.3
2018-Jul-14 18:00N 39°51' W 075°20'0 0.1
2018-Jul-14 17:30N 39°51' W 075°20'0 0.0
2018-Jul-14 17:00N 39°51' W 075°20'0 0.0
2018-Jul-14 16:30N 39°51' W 075°20'0 0.0
2018-Jul-14 16:00N 39°51' W 075°20'0 0.0
2018-Jul-14 15:31N 39°51' W 075°20'0 0.0
2018-Jul-14 15:00N 39°51' W 075°20'0 0.0
2018-Jul-14 14:30N 39°51' W 075°20'0 0.0
2018-Jul-14 13:31N 39°51' W 075°20'0 0.0
2018-Jul-14 13:00N 39°51' W 075°20'0 0.0
2018-Jul-14 12:30N 39°51' W 075°20'0 0.0
2018-Jul-14 12:01N 39°51' W 075°20'0 0.0
2018-Jul-14 11:30N 39°51' W 075°20'0 0.0
2018-Jul-14 11:00N 39°51' W 075°20'0 0.0
2018-Jul-14 10:30N 39°51' W 075°20'0 0.0
2018-Jul-14 10:00N 39°51' W 075°20'0 0.0
2018-Jul-14 09:31N 39°51' W 075°20'0 0.0
2018-Jul-14 09:00N 39°51' W 075°20'0 0.0
2018-Jul-14 08:30N 39°51' W 075°20'0 0.0
2018-Jul-14 08:00N 39°51' W 075°20'0 0.0
2018-Jul-14 07:30N 39°51' W 075°20'0 0.0
2018-Jul-14 07:01N 39°51' W 075°20'0 0.0
2018-Jul-14 06:30N 39°51' W 075°20'0 0.0
2018-Jul-14 06:00N 39°51' W 075°20'0 0.0
2018-Jul-14 05:30N 39°51' W 075°20'0 0.0
2018-Jul-14 05:00N 39°51' W 075°20'0 0.0
2018-Jul-14 04:31N 39°51' W 075°20'0 0.0
2018-Jul-14 04:01N 39°51' W 075°20'0 0.0
2018-Jul-14 03:30N 39°51' W 075°20'0 0.0
2018-Jul-14 03:00N 39°51' W 075°20'0 0.1
2018-Jul-14 02:30N 39°51' W 075°20'4 7.1
2018-Jul-14 02:00N 39°49' W 075°24'2 4.3
2018-Jul-14 01:30N 39°48' W 075°26'5 9.7
2018-Jul-14 01:00N 39°44' W 075°30'5 9.2
2018-Jul-14 00:30N 39°39' W 075°33'4 7.8
2018-Jul-14 00:00N 39°36' W 075°34'4 8.3
2018-Jul-13 23:30N 39°32' W 075°33'4 8.2
2018-Jul-13 23:00N 39°27' W 075°34'4 8.0
2018-Jul-13 22:30N 39°24' W 075°30'4 7.5
2018-Jul-13 22:00N 39°22' W 075°27'4 7.4
2018-Jul-13 21:30N 39°19' W 075°24'4 7.3
2018-Jul-13 21:00N 39°16' W 075°21'4 7.2
2018-Jul-13 20:30N 39°13' W 075°18'4 6.9
2018-Jul-13 19:57N 39°10' W 075°15'5 7.8
2018-Jul-13 19:15N 39°05' W 075°11'2 7.8
2018-Jul-13 19:00N 39°04' W 075°10'4 7.4
2018-Jul-13 18:29N 39°00' W 075°09'4 4.8
2018-Jul-13 17:45N 38°57' W 075°09'0 0.8
2018-Jul-13 17:24N 38°56' W 075°09'2 3.6
2018-Jul-13 16:59N 38°58' W 075°09'3 6.9
2018-Jul-13 16:29N 39°01' W 075°09'3 6.9
2018-Jul-13 16:00N 39°04' W 075°11'3 6.4
2018-Jul-13 15:30N 39°07' W 075°13'3 5.9
2018-Jul-13 15:00N 39°09' W 075°15'5 5.0
2018-Jul-13 14:00N 39°14' W 075°18'2 4.5
2018-Jul-13 13:30N 39°15' W 075°20'2 4.7
2018-Jul-13 13:00N 39°17' W 075°22'2 4.8
2018-Jul-13 12:30N 39°19' W 075°24'3 5.1
2018-Jul-13 12:00N 39°21' W 075°26'3 5.9
2018-Jul-13 11:30N 39°23' W 075°29'3 7.0
2018-Jul-13 11:00N 39°26' W 075°32'4 7.6
2018-Jul-13 10:30N 39°29' W 075°34'4 8.1
2018-Jul-13 10:00N 39°33' W 075°33'4 7.8
2018-Jul-13 09:30N 39°37' W 075°35'4 7.6
2018-Jul-13 09:01N 39°40' W 075°32'4 8.0
2018-Jul-13 08:30N 39°44' W 075°30'4 7.4
2018-Jul-13 08:01N 39°47' W 075°28'3 6.8
2018-Jul-13 07:30N 39°49' W 075°24'3 6.4
2018-Jul-13 07:01N 39°51' W 075°21'0 0.6
2018-Jul-13 06:30N 39°51' W 075°20'0 0.1
2018-Jul-13 06:01N 39°51' W 075°20'0 0.1
2018-Jul-13 05:30N 39°51' W 075°20'0 0.0
2018-Jul-13 05:00N 39°51' W 075°20'0 0.0
2018-Jul-13 04:30N 39°51' W 075°20'0 0.0
2018-Jul-13 04:01N 39°51' W 075°20'0 0.0
2018-Jul-13 03:30N 39°51' W 075°20'0 0.0
2018-Jul-13 03:00N 39°51' W 075°20'0 0.0
2018-Jul-13 02:30N 39°51' W 075°20'0 0.0
2018-Jul-13 02:01N 39°51' W 075°20'0 0.0
2018-Jul-13 01:31N 39°51' W 075°20'0 0.0
2018-Jul-13 01:01N 39°51' W 075°20'0 0.0
2018-Jul-13 00:30N 39°51' W 075°20'0 0.0
2018-Jul-13 00:00N 39°51' W 075°20'0 0.0
2018-Jul-12 23:30N 39°51' W 075°20'0 0.0
2018-Jul-12 23:00N 39°51' W 075°20'0 0.0
2018-Jul-12 22:30N 39°51' W 075°20'0 0.0
2018-Jul-12 22:00N 39°51' W 075°20'0 0.0
2018-Jul-12 21:30N 39°51' W 075°20'0 0.0
2018-Jul-12 21:00N 39°51' W 075°20'0 0.0
2018-Jul-12 20:30N 39°51' W 075°20'0 0.0
2018-Jul-12 20:01N 39°51' W 075°20'0 0.0
2018-Jul-12 19:30N 39°51' W 075°20'0 0.0
2018-Jul-12 19:00N 39°51' W 075°20'0 0.0
2018-Jul-12 18:30N 39°51' W 075°21'0 0.0
2018-Jul-12 18:00N 39°51' W 075°21'0 0.0
2018-Jul-12 17:30N 39°51' W 075°21'0 0.0
2018-Jul-12 17:00N 39°51' W 075°21'0 0.0
2018-Jul-12 16:30N 39°51' W 075°21'0 0.0
2018-Jul-12 16:01N 39°51' W 075°21'0 0.0
2018-Jul-12 15:31N 39°51' W 075°21'0 0.0
2018-Jul-12 15:00N 39°51' W 075°21'0 0.0
2018-Jul-12 14:30N 39°51' W 075°21'0 0.0
2018-Jul-12 14:00N 39°51' W 075°21'0 0.0
2018-Jul-12 13:30N 39°51' W 075°21'0 0.1
2018-Jul-12 13:00N 39°51' W 075°20'2 3.1
2018-Jul-12 12:30N 39°50' W 075°22'1 1.3
2018-Jul-12 12:00N 39°50' W 075°23'0 0.0
2018-Jul-12 11:31N 39°50' W 075°23'0 0.0
2018-Jul-12 11:00N 39°50' W 075°23'0 0.0
2018-Jul-12 10:30N 39°50' W 075°23'0 0.0
2018-Jul-12 10:00N 39°50' W 075°23'0 0.0
2018-Jul-12 09:30N 39°50' W 075°23'0 0.0
2018-Jul-12 09:00N 39°50' W 075°23'0 0.0
2018-Jul-12 08:30N 39°50' W 075°23'0 0.0
2018-Jul-12 08:00N 39°50' W 075°23'0 0.0
2018-Jul-12 07:30N 39°50' W 075°23'0 0.0
2018-Jul-12 07:00N 39°50' W 075°23'0 0.0
2018-Jul-12 06:30N 39°50' W 075°23'0 0.0
2018-Jul-12 06:00N 39°50' W 075°23'0 0.0
2018-Jul-12 05:30N 39°50' W 075°23'0 0.0
2018-Jul-12 05:00N 39°50' W 075°23'0 0.0
2018-Jul-12 04:30N 39°50' W 075°23'0 0.0
2018-Jul-12 04:00N 39°50' W 075°23'0 0.0
2018-Jul-12 03:30N 39°50' W 075°23'  
Track history (hours):
 
Tides and Currents Weather Stations Pressure Air Temp Water Temp Dewpoint Dewpoint Depression Visibility Wind Speed Wind Dir Waves Ship Positions

Atlantic Coast

Owner: DANN MARINE TOWING, CHESAPEAKE CITY, MD. More information available from US FCC via Universal Licensing System and Coast Guard Vessel Documentation Center.

Last reported at 2018-Jul-22 03:02 UTC. Time now 2018-Jul-22 06:48 UTC.
Position N 39°22' W 075°28'.

Length 30 m; draft 4.2 m.

Type: Tug. MMSI: 367307850.

Date/timePositionNaut miles runAvg speedWind from/ knotsBaromVisibWave heightAir tempDewpointWater temp
2018-Jul-22 03:02N 39°22' W 075°28'1 7.6
2018-Jul-22 02:58N 39°23' W 075°28'3 7.4
2018-Jul-22 02:30N 39°25' W 075°31'3 6.8
2018-Jul-22 02:00N 39°28' W 075°34'3 6.7
2018-Jul-22 01:30N 39°31' W 075°33'3 6.2
2018-Jul-22 01:00N 39°34' W 075°33'3 5.6
2018-Jul-22 00:30N 39°37' W 075°35'2 4.6
2018-Jul-22 00:00N 39°39' W 075°33'2 4.4
2018-Jul-21 23:30N 39°41' W 075°31'2 3.5
2018-Jul-21 23:00N 39°42' W 075°31'2 3.8
2018-Jul-21 22:27N 39°44' W 075°30'2 3.6
2018-Jul-21 22:00N 39°46' W 075°29'2 3.7
2018-Jul-21 21:30N 39°47' W 075°27'2 3.8
2018-Jul-21 21:00N 39°48' W 075°25'2 4.0
2018-Jul-21 20:30N 39°49' W 075°23'2 3.5
2018-Jul-21 20:00N 39°50' W 075°21'1 1.9
2018-Jul-21 19:30N 39°51' W 075°20'0 0.4
2018-Jul-21 19:01N 39°51' W 075°20'0 0.1
2018-Jul-21 18:30N 39°51' W 075°20'0 0.2
2018-Jul-21 18:01N 39°51' W 075°20'0 0.1
2018-Jul-21 17:30N 39°51' W 075°20'0 0.0
2018-Jul-21 17:01N 39°51' W 075°20'0 0.1
2018-Jul-21 16:30N 39°51' W 075°20'0 0.1
2018-Jul-21 16:00N 39°51' W 075°20'0 0.1
2018-Jul-21 15:30N 39°51' W 075°20'0 0.0
2018-Jul-21 15:00N 39°51' W 075°20'0 0.1
2018-Jul-21 14:30N 39°51' W 075°20'1 0.6
2018-Jul-21 13:30N 39°51' W 075°21'2 4.7
2018-Jul-21 13:00N 39°49' W 075°23'2 4.3
2018-Jul-21 12:30N 39°48' W 075°25'2 3.2
2018-Jul-21 12:00N 39°47' W 075°27'5 9.0
2018-Jul-21 11:30N 39°43' W 075°30'4 9.1
2018-Jul-21 11:00N 39°39' W 075°33'4 8.0
2018-Jul-21 10:30N 39°35' W 075°34'5 8.9
2018-Jul-21 09:59N 39°31' W 075°33'4 9.3
2018-Jul-21 09:30N 39°26' W 075°33'5 9.8
2018-Jul-21 09:00N 39°23' W 075°28'1 0.1
2018-Jul-21 00:25N 39°24' W 075°29'3 6.8
2018-Jul-21 00:00N 39°26' W 075°32'3 6.2
2018-Jul-20 23:30N 39°28' W 075°34'3 5.5
2018-Jul-20 22:59N 39°31' W 075°33'2 4.7
2018-Jul-20 22:30N 39°33' W 075°33'3 5.1
2018-Jul-20 22:00N 39°36' W 075°34'2 4.2
2018-Jul-20 21:30N 39°38' W 075°35'2 4.5
2018-Jul-20 21:00N 39°39' W 075°33'2 4.4
2018-Jul-20 20:28N 39°42' W 075°31'2 4.6
2018-Jul-20 19:59N 39°44' W 075°30'3 5.4
2018-Jul-20 19:29N 39°46' W 075°29'3 6.2
2018-Jul-20 18:59N 39°48' W 075°26'3 5.9
2018-Jul-20 18:30N 39°50' W 075°23'2 4.1
2018-Jul-20 18:01N 39°51' W 075°20'0 0.1
2018-Jul-20 17:31N 39°51' W 075°20'0 0.3
2018-Jul-20 17:00N 39°51' W 075°20'0 0.1
2018-Jul-20 16:31N 39°51' W 075°20'0 0.0
2018-Jul-20 16:00N 39°51' W 075°20'0 0.0
2018-Jul-20 15:30N 39°51' W 075°20'0 0.0
2018-Jul-20 15:01N 39°51' W 075°20'0 0.0
2018-Jul-20 14:31N 39°51' W 075°20'0 0.0
2018-Jul-20 14:00N 39°51' W 075°20'0 0.0
2018-Jul-20 13:30N 39°51' W 075°20'0 0.0
2018-Jul-20 13:00N 39°51' W 075°20'0 0.0
2018-Jul-20 12:31N 39°51' W 075°20'0 0.0
2018-Jul-20 12:00N 39°51' W 075°20'0 0.0
2018-Jul-20 11:30N 39°51' W 075°20'0 0.0
2018-Jul-20 11:00N 39°51' W 075°20'0 0.0
2018-Jul-20 10:30N 39°51' W 075°20'0 0.0
2018-Jul-20 10:01N 39°51' W 075°20'0 0.0
2018-Jul-20 09:31N 39°51' W 075°20'0 0.0
2018-Jul-20 09:00N 39°51' W 075°20'0 0.0
2018-Jul-20 08:30N 39°51' W 075°20'0 0.0
2018-Jul-20 08:01N 39°51' W 075°20'0 0.0
2018-Jul-20 07:31N 39°51' W 075°20'0 0.0
2018-Jul-20 07:01N 39°51' W 075°20'0 0.0
2018-Jul-20 06:30N 39°51' W 075°20'0 0.0
2018-Jul-20 06:01N 39°51' W 075°20'0 0.0
2018-Jul-20 05:30N 39°51' W 075°20'0 0.0
2018-Jul-20 05:00N 39°51' W 075°20'0 0.0
2018-Jul-20 04:31N 39°51' W 075°20'0 0.0
2018-Jul-20 04:00N 39°51' W 075°20'0 0.0
2018-Jul-20 03:30N 39°51' W 075°20'0 0.0
2018-Jul-20 03:00N 39°51' W 075°20'0 0.1
2018-Jul-20 02:31N 39°51' W 075°20'2 3.3
2018-Jul-20 02:00N 39°50' W 075°22'3 6.7
2018-Jul-20 01:31N 39°48' W 075°26'3 5.1
2018-Jul-20 01:00N 39°46' W 075°28'4 8.2
2018-Jul-20 00:30N 39°43' W 075°31'4 8.3
2018-Jul-20 00:00N 39°39' W 075°33'4 7.5
2018-Jul-19 23:30N 39°35' W 075°34'4 8.7
2018-Jul-19 23:00N 39°31' W 075°33'5 9.2
2018-Jul-19 22:30N 39°26' W 075°32'510.1
2018-Jul-19 22:00N 39°23' W 075°28'510.5
2018-Jul-19 21:30N 39°19' W 075°23'510.4
2018-Jul-19 21:00N 39°15' W 075°19'510.2
2018-Jul-19 20:30N 39°10' W 075°16'6 9.8
2018-Jul-19 19:53N 39°05' W 075°11'4 9.9
2018-Jul-19 19:30N 39°02' W 075°10'5 9.3
2018-Jul-19 19:00N 38°57' W 075°09'2 3.3
2018-Jul-19 18:19N 38°56' W 075°06'2 5.5
2018-Jul-19 17:57N 38°58' W 075°07'8 5.3
2018-Jul-19 16:25N 39°05' W 075°12'2 5.8
2018-Jul-19 16:00N 39°07' W 075°13'3 6.0
2018-Jul-19 15:30N 39°10' W 075°15'3 6.8
2018-Jul-19 15:00N 39°13' W 075°17'8 8.3
2018-Jul-19 14:00N 39°19' W 075°24'4 8.7
2018-Jul-19 13:30N 39°22' W 075°28'4 8.0
2018-Jul-19 13:00N 39°25' W 075°31'4 8.0
2018-Jul-19 12:30N 39°29' W 075°34'4 8.1
2018-Jul-19 12:00N 39°33' W 075°33'4 7.3
2018-Jul-19 11:31N 39°36' W 075°34'3 6.2
2018-Jul-19 11:00N 39°39' W 075°33'3 6.0
2018-Jul-19 10:30N 39°42' W 075°31'3 5.5
2018-Jul-19 10:00N 39°45' W 075°30'3 5.0
2018-Jul-19 09:30N 39°47' W 075°28'2 4.7
2018-Jul-19 09:00N 39°48' W 075°26'2 3.3
2018-Jul-19 08:30N 39°49' W 075°24'2 3.1
2018-Jul-19 08:00N 39°50' W 075°22'2 3.3
2018-Jul-19 07:30N 39°51' W 075°20'0 0.1
2018-Jul-19 07:00N 39°51' W 075°20'0 0.0
2018-Jul-19 06:30N 39°51' W 075°20'0 0.1
2018-Jul-19 06:00N 39°51' W 075°20'0 0.0
2018-Jul-19 05:30N 39°51' W 075°20'0 0.0
2018-Jul-19 05:00N 39°51' W 075°20'0 0.0
2018-Jul-19 04:30N 39°51' W 075°20'0 0.0
2018-Jul-19 04:00N 39°51' W 075°20'0 0.0
2018-Jul-19 03:30N 39°51' W 075°20'0 0.0
2018-Jul-19 03:00N 39°51' W 075°20'0 0.0
2018-Jul-19 02:30N 39°51' W 075°20'0 0.0
2018-Jul-19 02:00N 39°51' W 075°20'0 0.0
2018-Jul-19 01:30N 39°51' W 075°20'0 0.0
2018-Jul-19 01:00N 39°51' W 075°20'0 0.0
2018-Jul-19 00:30N 39°51' W 075°20'0 0.0
2018-Jul-19 00:00N 39°51' W 075°20'0 0.0
2018-Jul-18 23:30N 39°51' W 075°20'0 0.0
2018-Jul-18 23:00N 39°51' W 075°20'0 0.0
2018-Jul-18 22:30N 39°51' W 075°20'0 0.0
2018-Jul-18 22:00N 39°51' W 075°20'0 0.0
2018-Jul-18 21:30N 39°51' W 075°20'0 0.0
2018-Jul-18 21:00N 39°51' W 075°20'0 0.0
2018-Jul-18 20:30N 39°51' W 075°20'0 0.0
2018-Jul-18 20:00N 39°51' W 075°20'0 0.0
2018-Jul-18 19:30N 39°51' W 075°20'0 0.0
2018-Jul-18 19:00N 39°51' W 075°20'0 0.0
2018-Jul-18 18:30N 39°51' W 075°20'0 0.0
2018-Jul-18 18:00N 39°51' W 075°20'0 0.0
2018-Jul-18 17:30N 39°51' W 075°20'0 0.0
2018-Jul-18 17:00N 39°51' W 075°20'0 0.1
2018-Jul-18 16:30N 39°51' W 075°20'1 2.9
2018-Jul-18 16:00N 39°50' W 075°22'3 6.7
2018-Jul-18 15:30N 39°48' W 075°25'2 3.9
2018-Jul-18 15:00N 39°47' W 075°28'4 7.2
2018-Jul-18 14:30N 39°44' W 075°30'4 7.4
2018-Jul-18 14:00N 39°40' W 075°32'3 6.9
2018-Jul-18 13:30N 39°38' W 075°35'3 6.6
2018-Jul-18 13:00N 39°35' W 075°33'3 6.3
2018-Jul-18 12:30N 39°31' W 075°33'3 6.4
2018-Jul-18 12:00N 39°28' W 075°33'3 6.9
2018-Jul-18 11:30N 39°25' W 075°31'7 7.5
2018-Jul-18 10:30N 39°20' W 075°25'4 7.6
2018-Jul-18 10:00N 39°17' W 075°21'4 8.0
2018-Jul-18 09:30N 39°14' W 075°18'4 7.9
2018-Jul-18 09:00N 39°10' W 075°16'4 8.2
2018-Jul-18 08:30N 39°07' W 075°13'4 8.3
2018-Jul-18 08:00N 39°03' W 075°10'4 8.3
2018-Jul-18 07:29N 38°59' W 075°09'3 5.0
2018-Jul-18 06:58N 38°57' W 075°08'2 3.6
2018-Jul-18 06:29N 38°55' W 075°07'3 5.3
2018-Jul-18 06:00N 38°58' W 075°07'3 5.9
2018-Jul-18 05:30N 39°01' W 075°09'3 5.6
2018-Jul-18 05:00N 39°03' W 075°10'3 5.2
2018-Jul-18 04:30N 39°06' W 075°11'2 4.7
2018-Jul-18 04:00N 39°08' W 075°13'3 5.4
2018-Jul-18 03:30N 39°10' W 075°15'3 5.1
2018-Jul-18 03:00N 39°12' W 075°17'3 6.3
2018-Jul-18 02:30N 39°15' W 075°19'3 6.8
2018-Jul-18 02:00N 39°17' W 075°22'4 8.1
2018-Jul-18 01:30N 39°20' W 075°25'4 8.3
2018-Jul-18 01:00N 39°23' W 075°29'4 8.4
2018-Jul-18 00:30N 39°27' W 075°33'4 7.9
2018-Jul-18 00:00N 39°30' W 075°33'4 7.8
2018-Jul-17 23:30N 39°34' W 075°33'4 7.2
2018-Jul-17 23:00N 39°38' W 075°35'3 6.7
2018-Jul-17 22:30N 39°40' W 075°32'3 6.3
2018-Jul-17 22:01N 39°43' W 075°30'3 5.4
2018-Jul-17 21:30N 39°46' W 075°29'2 4.9
2018-Jul-17 21:00N 39°48' W 075°27'2 4.6
2018-Jul-17 20:30N 39°49' W 075°24'1 3.0
2018-Jul-17 20:00N 39°50' W 075°23'1 3.0
2018-Jul-17 19:30N 39°51' W 075°21'1 1.1
2018-Jul-17 19:00N 39°51' W 075°20'0 0.0
2018-Jul-17 18:30N 39°51' W 075°20'0 0.1
2018-Jul-17 18:00N 39°51' W 075°20'0 0.0
2018-Jul-17 17:30N 39°51' W 075°21'0 0.0
2018-Jul-17 17:00N 39°51' W 075°21'0 0.1
2018-Jul-17 16:30N 39°51' W 075°20'0 0.4
2018-Jul-17 16:00N 39°51' W 075°20'0 0.2
2018-Jul-17 15:30N 39°51' W 075°20'0 0.0
2018-Jul-17 15:00N 39°51' W 075°20'0 0.0
2018-Jul-17 14:30N 39°51' W 075°20'0 0.0
2018-Jul-17 14:00N 39°51' W 075°20'0 0.0
2018-Jul-17 13:30N 39°51' W 075°20'0 0.0
2018-Jul-17 12:59N 39°51' W 075°20'0 0.0
2018-Jul-17 12:30N 39°51' W 075°20'0 0.0
2018-Jul-17 12:00N 39°51' W 075°20'0 0.0
2018-Jul-17 11:30N 39°51' W 075°20'0 0.0
2018-Jul-17 11:00N 39°51' W 075°20'0 0.0
2018-Jul-17 10:30N 39°51' W 075°20'0 0.0
2018-Jul-17 10:00N 39°51' W 075°20'0 0.0
2018-Jul-17 09:30N 39°51' W 075°20'0 0.0
2018-Jul-17 09:00N 39°51' W 075°20'0 0.0
2018-Jul-17 08:30N 39°51' W 075°20'0 0.0
2018-Jul-17 08:00N 39°51' W 075°20'0 0.0
2018-Jul-17 07:30N 39°51' W 075°20'0 0.0
2018-Jul-17 07:00N 39°51' W 075°20'0 0.0
2018-Jul-17 06:30N 39°51' W 075°20'0 0.0
2018-Jul-17 06:00N 39°51' W 075°20'0 0.0
2018-Jul-17 05:30N 39°51' W 075°20'0 0.0
2018-Jul-17 05:00N 39°51' W 075°20'0 0.0
2018-Jul-17 04:30N 39°51' W 075°20'0 0.1
2018-Jul-17 04:00N 39°51' W 075°20'1 2.0
2018-Jul-17 03:30N 39°50' W 075°21'4 7.6
2018-Jul-17 03:00N 39°48' W 075°25'2 3.2
2018-Jul-17 02:30N 39°47' W 075°27'4 7.6
2018-Jul-17 02:00N 39°44' W 075°30'4 7.3
2018-Jul-17 01:30N 39°41' W 075°31'4 7.0
2018-Jul-17 01:00N 39°38' W 075°34'3 6.8
2018-Jul-17 00:30N 39°35' W 075°33'7 6.8
2018-Jul-16 23:30N 39°28' W 075°34'4 7.0
2018-Jul-16 23:00N 39°25' W 075°31'4 7.3
2018-Jul-16 22:30N 39°22' W 075°28'4 7.4
2018-Jul-16 22:00N 39°20' W 075°25'4 7.4
2018-Jul-16 21:30N 39°17' W 075°21'4 7.8
2018-Jul-16 21:00N 39°14' W 075°18'4 7.9
2018-Jul-16 20:30N 39°10' W 075°16'4 8.1
2018-Jul-16 20:00N 39°07' W 075°13'4 8.2
2018-Jul-16 19:30N 39°03' W 075°10'5 8.4
2018-Jul-16 18:58N 38°59' W 075°09'2 5.2
2018-Jul-16 18:30N 38°57' W 075°09'2 1.4
2018-Jul-16 17:23N 38°58' W 075°07'2 6.0
2018-Jul-16 16:59N 39°00' W 075°09'3 5.6
2018-Jul-16 16:30N 39°03' W 075°10'3 5.4
2018-Jul-16 16:00N 39°05' W 075°11'2 4.6
2018-Jul-16 15:30N 39°07' W 075°13'3 5.2
2018-Jul-16 15:00N 39°09' W 075°15'2 4.9
2018-Jul-16 14:30N 39°11' W 075°17'2 4.8
2018-Jul-16 14:00N 39°13' W 075°18'3 6.5
2018-Jul-16 13:30N 39°16' W 075°20'3 6.7
2018-Jul-16 13:00N 39°18' W 075°23'4 7.6
2018-Jul-16 12:30N 39°21' W 075°27'4 8.3
2018-Jul-16 12:01N 39°24' W 075°30'4 8.4
2018-Jul-16 11:30N 39°28' W 075°34'4 8.2
2018-Jul-16 11:00N 39°32' W 075°33'4 7.8
2018-Jul-16 10:31N 39°35' W 075°34'3 6.6
2018-Jul-16 10:01N 39°39' W 075°33'4 7.0
2018-Jul-16 09:30N 39°42' W 075°31'3 6.5
2018-Jul-16 09:00N 39°45' W 075°30'3 5.6
2018-Jul-16 08:30N 39°47' W 075°27'3 5.1
2018-Jul-16 08:00N 39°48' W 075°25'2 4.4
2018-Jul-16 07:30N 39°50' W 075°22'2 3.8
2018-Jul-16 07:00N 39°51' W 075°20'0 0.4
2018-Jul-16 06:30N 39°51' W 075°20'0 0.1
2018-Jul-16 06:00N 39°51' W 075°20'0 0.0
2018-Jul-16 05:30N 39°51' W 075°20'0 0.0
2018-Jul-16 05:00N 39°51' W 075°20'0 0.0
2018-Jul-16 04:30N 39°51' W 075°20'0 0.0
2018-Jul-16 04:00N 39°51' W 075°20'0 0.0
2018-Jul-16 03:30N 39°51' W 075°20'0 0.0
2018-Jul-16 03:00N 39°51' W 075°20'0 0.0
2018-Jul-16 02:30N 39°51' W 075°20'0 0.0
2018-Jul-16 02:00N 39°51' W 075°20'0 0.0
2018-Jul-16 01:31N 39°51' W 075°20'0 0.0
2018-Jul-16 01:00N 39°51' W 075°20'0 0.0
2018-Jul-16 00:30N 39°51' W 075°20'0 0.0
2018-Jul-16 00:00N 39°51' W 075°20'0 0.0
2018-Jul-15 23:30N 39°51' W 075°20'0 0.0
2018-Jul-15 23:00N 39°51' W 075°20'0 0.0
2018-Jul-15 22:30N 39°51' W 075°20'0 0.0
2018-Jul-15 22:00N 39°51' W 075°20'0 0.0
2018-Jul-15 21:30N 39°51' W 075°20'0 0.0
2018-Jul-15 21:00N 39°51' W 075°20'0 0.0
2018-Jul-15 20:30N 39°51' W 075°20'0 0.0
2018-Jul-15 20:00N 39°51' W 075°20'0 0.0
2018-Jul-15 19:30N 39°51' W 075°20'0 0.0
2018-Jul-15 19:01N 39°51' W 075°20'0 0.0
2018-Jul-15 18:30N 39°51' W 075°20'0 0.0
2018-Jul-15 18:00N 39°51' W 075°20'0 0.0
2018-Jul-15 17:30N 39°51' W 075°20'0 0.0
2018-Jul-15 17:00N 39°51' W 075°20'0 0.0
2018-Jul-15 16:30N 39°51' W 075°20'0 0.0
2018-Jul-15 16:00N 39°51' W 075°20'0 0.2
2018-Jul-15 15:30N 39°51' W 075°20'4 8.7
2018-Jul-15 15:00N 39°48' W 075°25'2 4.8
2018-Jul-15 14:30N 39°47' W 075°28'4 7.6
2018-Jul-15 14:00N 39°44' W 075°30'4 7.3
2018-Jul-15 13:30N 39°40' W 075°32'3 6.9
2018-Jul-15 13:00N 39°38' W 075°35'3 7.0
2018-Jul-15 12:30N 39°34' W 075°33'3 6.3
2018-Jul-15 12:01N 39°31' W 075°33'3 6.8
2018-Jul-15 11:31N 39°28' W 075°34'3 6.7
2018-Jul-15 11:00N 39°25' W 075°31'3 6.1
2018-Jul-15 10:30N 39°23' W 075°28'3 6.6
2018-Jul-15 10:00N 39°20' W 075°26'3 6.5
2018-Jul-15 09:31N 39°18' W 075°23'3 6.2
2018-Jul-15 09:01N 39°16' W 075°20'3 6.5
2018-Jul-15 08:30N 39°13' W 075°18'3 6.6
2018-Jul-15 08:00N 39°10' W 075°16'6 6.6
2018-Jul-15 07:08N 39°05' W 075°11'1 6.4
2018-Jul-15 07:00N 39°05' W 075°11'3 6.4
2018-Jul-15 06:30N 39°02' W 075°10'3 6.6
2018-Jul-15 06:00N 38°58' W 075°09'2 3.9
2018-Jul-15 05:30N 38°57' W 075°09'1 2.7
2018-Jul-15 05:00N 38°56' W 075°07'1 2.9
2018-Jul-15 04:31N 38°57' W 075°07'3 5.1
2018-Jul-15 04:00N 38°60' W 075°08'3 5.9
2018-Jul-15 03:30N 39°02' W 075°10'3 6.1
2018-Jul-15 03:00N 39°05' W 075°11'3 5.5
2018-Jul-15 02:31N 39°07' W 075°13'3 5.4
2018-Jul-15 02:00N 39°10' W 075°15'2 4.9
2018-Jul-15 01:30N 39°12' W 075°17'2 4.7
2018-Jul-15 01:00N 39°14' W 075°18'3 5.7
2018-Jul-15 00:30N 39°16' W 075°20'3 6.1
2018-Jul-15 00:00N 39°18' W 075°23'4 7.2
2018-Jul-14 23:30N 39°21' W 075°26'4 8.4
2018-Jul-14 23:00N 39°24' W 075°30'4 8.7
2018-Jul-14 22:30N 39°27' W 075°34'4 8.6
2018-Jul-14 22:00N 39°32' W 075°33'4 8.3
2018-Jul-14 21:30N 39°36' W 075°34'4 7.1
2018-Jul-14 21:00N 39°39' W 075°33'4 7.7
2018-Jul-14 20:30N 39°43' W 075°31'3 7.0
2018-Jul-14 20:00N 39°46' W 075°29'3 6.1
2018-Jul-14 19:30N 39°48' W 075°26'3 5.7
2018-Jul-14 19:00N 39°49' W 075°23'2 4.6
2018-Jul-14 18:30N 39°51' W 075°20'0 0.3
2018-Jul-14 18:00N 39°51' W 075°20'0 0.1
2018-Jul-14 17:30N 39°51' W 075°20'0 0.0
2018-Jul-14 17:00N 39°51' W 075°20'0 0.0
2018-Jul-14 16:30N 39°51' W 075°20'0 0.0
2018-Jul-14 16:00N 39°51' W 075°20'0 0.0
2018-Jul-14 15:31N 39°51' W 075°20'0 0.0
2018-Jul-14 15:00N 39°51' W 075°20'0 0.0
2018-Jul-14 14:30N 39°51' W 075°20'0 0.0
2018-Jul-14 13:31N 39°51' W 075°20'0 0.0
2018-Jul-14 13:00N 39°51' W 075°20'0 0.0
2018-Jul-14 12:30N 39°51' W 075°20'0 0.0
2018-Jul-14 12:01N 39°51' W 075°20'0 0.0
2018-Jul-14 11:30N 39°51' W 075°20'0 0.0
2018-Jul-14 11:00N 39°51' W 075°20'0 0.0
2018-Jul-14 10:30N 39°51' W 075°20'0 0.0
2018-Jul-14 10:00N 39°51' W 075°20'0 0.0
2018-Jul-14 09:31N 39°51' W 075°20'0 0.0
2018-Jul-14 09:00N 39°51' W 075°20'0 0.0
2018-Jul-14 08:30N 39°51' W 075°20'0 0.0
2018-Jul-14 08:00N 39°51' W 075°20'0 0.0
2018-Jul-14 07:30N 39°51' W 075°20'0 0.0
2018-Jul-14 07:01N 39°51' W 075°20'0 0.0
2018-Jul-14 06:30N 39°51' W 075°20'0 0.0
2018-Jul-14 06:00N 39°51' W 075°20'0 0.0
2018-Jul-14 05:30N 39°51' W 075°20'0 0.0
2018-Jul-14 05:00N 39°51' W 075°20'0 0.0
2018-Jul-14 04:31N 39°51' W 075°20'0 0.0
2018-Jul-14 04:01N 39°51' W 075°20'0 0.0
2018-Jul-14 03:30N 39°51' W 075°20'0 0.0
2018-Jul-14 03:00N 39°51' W 075°20'0 0.1
2018-Jul-14 02:30N 39°51' W 075°20'4 7.1
2018-Jul-14 02:00N 39°49' W 075°24'2 4.3
2018-Jul-14 01:30N 39°48' W 075°26'5 9.7
2018-Jul-14 01:00N 39°44' W 075°30'5 9.2
2018-Jul-14 00:30N 39°39' W 075°33'4 7.8
2018-Jul-14 00:00N 39°36' W 075°34'4 8.3
2018-Jul-13 23:30N 39°32' W 075°33'4 8.2
2018-Jul-13 23:00N 39°27' W 075°34'4 8.0
2018-Jul-13 22:30N 39°24' W 075°30'4 7.5
2018-Jul-13 22:00N 39°22' W 075°27'4 7.4
2018-Jul-13 21:30N 39°19' W 075°24'4 7.3
2018-Jul-13 21:00N 39°16' W 075°21'4 7.2
2018-Jul-13 20:30N 39°13' W 075°18'4 6.9
2018-Jul-13 19:57N 39°10' W 075°15'5 7.8
2018-Jul-13 19:15N 39°05' W 075°11'2 7.8
2018-Jul-13 19:00N 39°04' W 075°10'4 7.4
2018-Jul-13 18:29N 39°00' W 075°09'4 4.8
2018-Jul-13 17:45N 38°57' W 075°09'0 0.8
2018-Jul-13 17:24N 38°56' W 075°09'2 3.6
2018-Jul-13 16:59N 38°58' W 075°09'3 6.9
2018-Jul-13 16:29N 39°01' W 075°09'3 6.9
2018-Jul-13 16:00N 39°04' W 075°11'3 6.4
2018-Jul-13 15:30N 39°07' W 075°13'3 5.9
2018-Jul-13 15:00N 39°09' W 075°15'5 5.0
2018-Jul-13 14:00N 39°14' W 075°18'2 4.5
2018-Jul-13 13:30N 39°15' W 075°20'2 4.7
2018-Jul-13 13:00N 39°17' W 075°22'2 4.8
2018-Jul-13 12:30N 39°19' W 075°24'3 5.1
2018-Jul-13 12:00N 39°21' W 075°26'3 5.9
2018-Jul-13 11:30N 39°23' W 075°29'3 7.0
2018-Jul-13 11:00N 39°26' W 075°32'4 7.6
2018-Jul-13 10:30N 39°29' W 075°34'4 8.1
2018-Jul-13 10:00N 39°33' W 075°33'4 7.8
2018-Jul-13 09:30N 39°37' W 075°35'4 7.6
2018-Jul-13 09:01N 39°40' W 075°32'4 8.0
2018-Jul-13 08:30N 39°44' W 075°30'4 7.4
2018-Jul-13 08:01N 39°47' W 075°28'3 6.8
2018-Jul-13 07:30N 39°49' W 075°24'3 6.4
2018-Jul-13 07:01N 39°51' W 075°21'0 0.6
2018-Jul-13 06:30N 39°51' W 075°20'0 0.1
2018-Jul-13 06:01N 39°51' W 075°20'0 0.1
2018-Jul-13 05:30N 39°51' W 075°20'0 0.0
2018-Jul-13 05:00N 39°51' W 075°20'0 0.0
2018-Jul-13 04:30N 39°51' W 075°20'0 0.0
2018-Jul-13 04:01N 39°51' W 075°20'0 0.0
2018-Jul-13 03:30N 39°51' W 075°20'0 0.0
2018-Jul-13 03:00N 39°51' W 075°20'0 0.0
2018-Jul-13 02:30N 39°51' W 075°20'0 0.0
2018-Jul-13 02:01N 39°51' W 075°20'0 0.0
2018-Jul-13 01:31N 39°51' W 075°20'0 0.0
2018-Jul-13 01:01N 39°51' W 075°20'0 0.0
2018-Jul-13 00:30N 39°51' W 075°20'0 0.0
2018-Jul-13 00:00N 39°51' W 075°20'0 0.0
2018-Jul-12 23:30N 39°51' W 075°20'0 0.0
2018-Jul-12 23:00N 39°51' W 075°20'0 0.0
2018-Jul-12 22:30N 39°51' W 075°20'0 0.0
2018-Jul-12 22:00N 39°51' W 075°20'0 0.0
2018-Jul-12 21:30N 39°51' W 075°20'0 0.0
2018-Jul-12 21:00N 39°51' W 075°20'0 0.0
2018-Jul-12 20:30N 39°51' W 075°20'0 0.0
2018-Jul-12 20:01N 39°51' W 075°20'0 0.0
2018-Jul-12 19:30N 39°51' W 075°20'0 0.0
2018-Jul-12 19:00N 39°51' W 075°20'0 0.0
2018-Jul-12 18:30N 39°51' W 075°21'0 0.0
2018-Jul-12 18:00N 39°51' W 075°21'0 0.0
2018-Jul-12 17:30N 39°51' W 075°21'0 0.0
2018-Jul-12 17:00N 39°51' W 075°21'0 0.0
2018-Jul-12 16:30N 39°51' W 075°21'0 0.0
2018-Jul-12 16:01N 39°51' W 075°21'0 0.0
2018-Jul-12 15:31N 39°51' W 075°21'0 0.0
2018-Jul-12 15:00N 39°51' W 075°21'0 0.0
2018-Jul-12 14:30N 39°51' W 075°21'0 0.0
2018-Jul-12 14:00N 39°51' W 075°21'0 0.0
2018-Jul-12 13:30N 39°51' W 075°21'0 0.1
2018-Jul-12 13:00N 39°51' W 075°20'2 3.1
2018-Jul-12 12:30N 39°50' W 075°22'1 1.3
2018-Jul-12 12:00N 39°50' W 075°23'0 0.0
2018-Jul-12 11:31N 39°50' W 075°23'0 0.0
2018-Jul-12 11:00N 39°50' W 075°23'0 0.0
2018-Jul-12 10:30N 39°50' W 075°23'0 0.0
2018-Jul-12 10:00N 39°50' W 075°23'0 0.0
2018-Jul-12 09:30N 39°50' W 075°23'0 0.0
2018-Jul-12 09:00N 39°50' W 075°23'0 0.0
2018-Jul-12 08:30N 39°50' W 075°23'0 0.0
2018-Jul-12 08:00N 39°50' W 075°23'0 0.0
2018-Jul-12 07:30N 39°50' W 075°23'0 0.0
2018-Jul-12 07:00N 39°50' W 075°23'0 0.0
2018-Jul-12 06:30N 39°50' W 075°23'0 0.0
2018-Jul-12 06:00N 39°50' W 075°23'0 0.0
2018-Jul-12 05:30N 39°50' W 075°23'0 0.0
2018-Jul-12 05:00N 39°50' W 075°23'0 0.0
2018-Jul-12 04:30N 39°50' W 075°23'0 0.0
2018-Jul-12 04:00N 39°50' W 075°23'0 0.0
2018-Jul-12 03:30N 39°50' W 075°23'  

Dump ship's entire track history